createdAt,value
2017-07-11T00:00:45.855Z,99.99
2017-07-11T00:01:54.711Z,99.99
2017-07-11T00:03:03.567Z,99.99
2017-07-11T00:04:12.426Z,99.99
2017-07-11T00:05:21.282Z,99.99
2017-07-11T00:06:30.389Z,99.99
2017-07-11T00:07:39.250Z,99.99
2017-07-11T00:08:48.102Z,99.99
2017-07-11T00:09:56.954Z,99.99
2017-07-11T00:11:05.812Z,99.99
2017-07-11T00:12:15.200Z,99.99
2017-07-11T00:13:24.060Z,99.99
2017-07-11T00:14:32.916Z,99.99
2017-07-11T00:15:41.771Z,99.99
2017-07-11T00:16:50.626Z,99.99
2017-07-11T00:17:59.635Z,99.99
2017-07-11T00:19:08.493Z,99.99
2017-07-11T00:20:17.354Z,99.99
2017-07-11T00:21:26.206Z,99.99
2017-07-11T00:22:35.061Z,99.99
2017-07-11T00:23:43.917Z,99.99
2017-07-11T00:24:52.772Z,99.99
2017-07-11T00:26:01.625Z,99.99
2017-07-11T00:27:10.480Z,99.99
2017-07-11T00:28:19.674Z,99.99
2017-07-11T00:29:28.678Z,99.99
2017-07-11T00:30:37.534Z,99.99
2017-07-11T00:31:46.389Z,99.99
2017-07-11T00:32:55.245Z,99.99
2017-07-11T00:34:04.102Z,99.99
2017-07-11T00:35:13.110Z,99.99
2017-07-11T00:36:21.967Z,99.99
2017-07-11T00:37:30.825Z,99.99
2017-07-11T00:38:39.678Z,99.99
2017-07-11T00:39:48.535Z,99.99
2017-07-11T00:40:57.494Z,99.99
2017-07-11T00:42:06.350Z,99.99
2017-07-11T00:43:15.208Z,99.99
2017-07-11T00:44:24.064Z,99.99
2017-07-11T00:45:32.922Z,99.99
2017-07-11T00:46:42.182Z,99.99
2017-07-11T00:47:51.040Z,99.99
2017-07-11T00:48:59.898Z,99.99
2017-07-11T00:50:08.755Z,99.99
2017-07-11T00:51:17.611Z,99.99
2017-07-11T00:52:26.618Z,99.99
2017-07-11T00:53:35.474Z,99.99
2017-07-11T00:54:44.330Z,99.99
2017-07-11T00:55:53.187Z,99.99
2017-07-11T00:57:02.042Z,99.99
2017-07-11T00:58:11.148Z,99.99
2017-07-11T00:59:20.006Z,99.99
2017-07-11T01:00:28.863Z,99.99
2017-07-11T01:01:37.720Z,99.99
2017-07-11T01:02:46.579Z,99.99
2017-07-11T01:03:55.685Z,99.99
2017-07-11T01:05:04.542Z,99.99
2017-07-11T01:06:13.400Z,99.99
2017-07-11T01:07:22.257Z,99.99
2017-07-11T01:08:31.112Z,99.99
2017-07-11T01:09:39.965Z,99.99
2017-07-11T01:10:48.822Z,99.99
2017-07-11T01:11:57.678Z,99.99
2017-07-11T01:13:06.533Z,99.99
2017-07-11T01:14:15.392Z,99.99
2017-07-11T01:15:24.496Z,99.99
2017-07-11T01:16:33.354Z,99.99
2017-07-11T01:17:42.210Z,99.99
2017-07-11T01:18:51.068Z,99.99
2017-07-11T01:19:59.923Z,99.99
2017-07-11T01:21:08.929Z,99.99
2017-07-11T01:22:17.786Z,99.99
2017-07-11T01:23:26.643Z,99.99
2017-07-11T01:24:35.499Z,99.99
2017-07-11T01:25:44.356Z,99.99
2017-07-11T01:26:53.263Z,99.99
2017-07-11T01:28:02.117Z,99.99
2017-07-11T01:29:10.973Z,99.99
2017-07-11T01:30:19.828Z,99.99
2017-07-11T01:31:28.685Z,99.99
2017-07-11T01:32:37.543Z,99.99
2017-07-11T01:33:46.400Z,99.99
2017-07-11T01:34:55.593Z,99.99
2017-07-11T01:36:04.781Z,99.99
2017-07-11T01:37:13.640Z,99.99
2017-07-11T01:38:22.596Z,99.99
2017-07-11T01:39:31.787Z,99.99
2017-07-11T01:40:40.643Z,99.99
2017-07-11T01:41:49.498Z,99.99
2017-07-11T01:42:58.356Z,99.99
2017-07-11T01:44:07.263Z,99.99
2017-07-11T01:45:16.121Z,99.99
2017-07-11T01:46:24.977Z,99.99
2017-07-11T01:47:33.834Z,99.99
2017-07-11T01:48:42.690Z,99.99
2017-07-11T01:49:51.748Z,99.99
2017-07-11T01:51:00.605Z,99.99
2017-07-11T01:52:09.461Z,99.99
2017-07-11T01:53:18.318Z,99.99
2017-07-11T01:54:27.175Z,99.99
2017-07-11T01:55:36.084Z,99.99
2017-07-11T01:56:44.939Z,99.99
2017-07-11T01:57:53.794Z,99.99
2017-07-11T01:59:02.650Z,99.99
2017-07-11T02:00:11.504Z,99.99
2017-07-11T02:01:20.662Z,99.99
2017-07-11T02:02:29.516Z,99.99
2017-07-11T02:03:38.372Z,99.99
2017-07-11T02:04:47.231Z,99.99
2017-07-11T02:05:56.086Z,99.99
2017-07-11T02:07:05.343Z,99.99
2017-07-11T02:08:14.197Z,99.99
2017-07-11T02:09:23.054Z,99.99
2017-07-11T02:10:31.911Z,99.99
2017-07-11T02:11:40.767Z,99.99
2017-07-11T02:12:49.774Z,99.99
2017-07-11T02:13:58.630Z,99.99
2017-07-11T02:15:07.485Z,99.99
2017-07-11T02:16:16.341Z,99.99
2017-07-11T02:17:25.198Z,99.99
2017-07-11T02:18:34.455Z,99.99
2017-07-11T02:19:43.312Z,99.99
2017-07-11T02:20:52.172Z,99.99
2017-07-11T02:22:01.359Z,99.99
2017-07-11T02:23:10.214Z,99.99
2017-07-11T02:24:19.321Z,99.99
2017-07-11T02:25:28.179Z,99.99
2017-07-11T02:26:37.037Z,99.99
2017-07-11T02:27:45.890Z,99.99
2017-07-11T02:28:54.745Z,99.99
2017-07-11T02:30:03.600Z,99.99
2017-07-11T02:31:12.454Z,99.99
2017-07-11T02:32:21.312Z,99.99
2017-07-11T02:33:30.168Z,99.99
2017-07-11T02:34:39.025Z,99.99
2017-07-11T02:35:48.078Z,99.99
2017-07-11T02:36:56.932Z,99.99
2017-07-11T02:38:05.786Z,99.99
2017-07-11T02:39:14.643Z,99.99
2017-07-11T02:40:23.499Z,99.99
2017-07-11T02:41:32.506Z,99.99
2017-07-11T02:42:41.692Z,99.99
2017-07-11T02:43:50.546Z,99.99
2017-07-11T02:44:59.404Z,99.99
2017-07-11T02:46:08.259Z,99.99
2017-07-11T02:47:17.266Z,99.99
2017-07-11T02:48:26.123Z,99.99
2017-07-11T02:49:34.979Z,99.99
2017-07-11T02:50:44.182Z,99.99
2017-07-11T02:51:53.037Z,99.99
2017-07-11T02:53:01.942Z,99.99
2017-07-11T02:54:10.799Z,99.99
2017-07-11T02:55:19.993Z,99.99
2017-07-11T02:56:28.850Z,99.99
2017-07-11T02:57:37.709Z,99.99
2017-07-11T02:58:46.715Z,99.99
2017-07-11T02:59:55.569Z,99.99
2017-07-11T03:01:04.424Z,99.99
2017-07-11T03:02:13.282Z,99.99
2017-07-11T03:03:22.139Z,99.99
2017-07-11T03:04:31.246Z,99.99
2017-07-11T03:05:40.100Z,99.99
2017-07-11T03:06:48.955Z,99.99
2017-07-11T03:07:57.813Z,99.99
2017-07-11T03:09:06.670Z,99.99
2017-07-11T03:10:15.528Z,99.99
2017-07-11T03:11:24.384Z,99.99
2017-07-11T03:12:33.240Z,99.99
2017-07-11T03:13:42.096Z,99.99
2017-07-11T03:14:50.950Z,99.99
2017-07-11T03:15:59.858Z,99.99
2017-07-11T03:17:08.714Z,99.99
2017-07-11T03:18:17.573Z,99.99
2017-07-11T03:19:26.430Z,99.99
2017-07-11T03:20:35.285Z,99.99
2017-07-11T03:21:44.290Z,99.99
2017-07-11T03:22:53.145Z,99.99
2017-07-11T03:24:02.002Z,99.99
2017-07-11T03:25:10.860Z,99.99
2017-07-11T03:26:20.050Z,99.99
2017-07-11T03:27:28.956Z,99.99
2017-07-11T03:28:37.871Z,99.99
2017-07-11T03:29:46.668Z,99.99
2017-07-11T03:30:55.526Z,99.99
2017-07-11T03:32:04.384Z,99.99
2017-07-11T03:33:13.389Z,99.99
2017-07-11T03:34:22.246Z,99.99
2017-07-11T03:35:31.103Z,99.99
2017-07-11T03:36:39.960Z,99.99
2017-07-11T03:37:48.817Z,99.99
2017-07-11T03:38:58.072Z,99.99
2017-07-11T03:40:06.929Z,99.99
2017-07-11T03:41:15.785Z,99.99
2017-07-11T03:42:24.641Z,99.99
2017-07-11T03:43:33.498Z,99.99
2017-07-11T03:44:42.505Z,99.99
2017-07-11T03:45:51.362Z,99.99
2017-07-11T03:47:00.218Z,99.99
2017-07-11T03:48:09.411Z,99.99
2017-07-11T03:49:18.268Z,99.99
2017-07-11T03:50:27.177Z,99.99
2017-07-11T03:51:36.033Z,99.99
2017-07-11T03:52:45.227Z,99.99
2017-07-11T03:53:54.086Z,99.99
2017-07-11T03:55:02.944Z,99.99
2017-07-11T03:56:11.948Z,99.99
2017-07-11T03:57:20.805Z,99.99
2017-07-11T03:58:29.662Z,99.99
2017-07-11T03:59:38.517Z,99.99
2017-07-11T04:00:47.376Z,99.99
2017-07-11T04:01:56.384Z,99.99
2017-07-11T04:03:05.238Z,99.99
2017-07-11T04:04:14.097Z,99.99
2017-07-11T04:05:22.953Z,99.99
2017-07-11T04:06:31.808Z,99.99
2017-07-11T04:07:40.715Z,99.99
2017-07-11T04:08:49.571Z,99.99
2017-07-11T04:09:58.428Z,99.99
2017-07-11T04:11:07.285Z,99.99
2017-07-11T04:12:16.140Z,99.99
2017-07-11T04:13:25.198Z,99.99
2017-07-11T04:14:34.054Z,99.99
2017-07-11T04:15:42.912Z,99.99
2017-07-11T04:16:51.769Z,99.99
2017-07-11T04:18:00.967Z,99.99
2017-07-11T04:19:09.865Z,99.99
2017-07-11T04:20:18.720Z,99.99
2017-07-11T04:21:27.575Z,99.99
2017-07-11T04:22:36.440Z,99.99
2017-07-11T04:23:45.296Z,99.99
2017-07-11T04:24:54.311Z,99.99
2017-07-11T04:26:03.161Z,99.99
2017-07-11T04:27:12.016Z,99.99
2017-07-11T04:28:20.871Z,99.99
2017-07-11T04:29:29.727Z,99.99
2017-07-11T04:30:38.683Z,99.99
2017-07-11T04:31:47.539Z,99.99
2017-07-11T04:32:56.397Z,99.99
2017-07-11T04:34:05.256Z,99.99
2017-07-11T04:35:14.112Z,99.99
2017-07-11T04:36:23.016Z,99.99
2017-07-11T04:37:31.875Z,99.99
2017-07-11T04:38:40.732Z,99.99
2017-07-11T04:39:49.587Z,99.99
2017-07-11T04:40:58.442Z,99.99
2017-07-11T04:42:07.549Z,99.99
2017-07-11T04:43:16.406Z,99.99
2017-07-11T04:44:25.261Z,99.99
2017-07-11T04:45:34.119Z,99.99
2017-07-11T04:46:42.975Z,99.99
2017-07-11T04:47:51.932Z,99.99
2017-07-11T04:49:00.790Z,99.99
2017-07-11T04:50:09.982Z,99.99
2017-07-11T04:51:18.839Z,99.99
2017-07-11T04:52:27.696Z,99.99
2017-07-11T04:53:36.755Z,99.99
2017-07-11T04:54:45.612Z,99.99
2017-07-11T04:55:54.468Z,99.99
2017-07-11T04:57:03.327Z,99.99
2017-07-11T04:58:12.181Z,99.99
2017-07-11T04:59:21.187Z,99.99
2017-07-11T05:00:30.046Z,99.99
2017-07-11T05:01:38.903Z,99.99
2017-07-11T05:02:47.760Z,99.99
2017-07-11T05:03:56.618Z,99.99
2017-07-11T05:05:05.624Z,99.99
2017-07-11T05:06:14.481Z,99.99
2017-07-11T05:07:23.338Z,99.99
2017-07-11T05:08:32.193Z,99.99
2017-07-11T05:09:41.049Z,99.99
2017-07-11T05:10:50.006Z,99.99
2017-07-11T05:11:58.860Z,99.99
2017-07-11T05:13:07.721Z,99.99
2017-07-11T05:14:16.577Z,99.99
2017-07-11T05:15:25.434Z,99.99
2017-07-11T05:16:34.292Z,99.99
2017-07-11T05:17:43.148Z,99.99
2017-07-11T05:18:52.007Z,99.99
2017-07-11T05:20:00.862Z,99.99
2017-07-11T05:21:09.717Z,99.99
2017-07-11T05:22:18.624Z,99.99
2017-07-11T05:23:27.478Z,99.99
2017-07-11T05:24:36.334Z,99.99
2017-07-11T05:25:45.525Z,99.99
2017-07-11T05:26:54.379Z,99.99
2017-07-11T05:28:03.540Z,99.99
2017-07-11T05:29:12.400Z,99.99
2017-07-11T05:30:21.255Z,99.99
2017-07-11T05:31:30.112Z,99.99
2017-07-11T05:32:38.967Z,99.99
2017-07-11T05:33:48.076Z,99.99
2017-07-11T05:34:56.939Z,99.99
2017-07-11T05:36:06.129Z,99.99
2017-07-11T05:37:14.987Z,99.99
2017-07-11T05:38:23.843Z,99.99
2017-07-11T05:39:32.749Z,99.99
2017-07-11T05:40:41.607Z,99.99
2017-07-11T05:41:50.465Z,99.99
2017-07-11T05:42:59.319Z,99.99
2017-07-11T05:44:08.176Z,99.99
2017-07-11T05:45:17.134Z,99.99
2017-07-11T05:46:25.990Z,99.99
2017-07-11T05:47:34.845Z,99.99
2017-07-11T05:48:43.701Z,99.99
2017-07-11T05:49:52.560Z,99.99
2017-07-11T05:51:01.417Z,99.99
2017-07-11T05:52:10.275Z,99.99
2017-07-11T05:53:19.135Z,99.99
2017-07-11T05:54:27.991Z,99.99
2017-07-11T05:55:36.849Z,99.99
2017-07-11T05:56:45.858Z,99.99
2017-07-11T05:57:54.718Z,99.99
2017-07-11T05:59:03.575Z,99.99
2017-07-11T06:00:12.434Z,99.99
2017-07-11T06:01:21.293Z,99.99
2017-07-11T06:02:30.249Z,99.99
2017-07-11T06:03:39.108Z,99.99
2017-07-11T06:04:47.969Z,99.99
2017-07-11T06:05:56.825Z,99.99
2017-07-11T06:07:05.683Z,99.99
2017-07-11T06:08:14.740Z,99.99
2017-07-11T06:09:23.602Z,99.99
2017-07-11T06:10:32.457Z,99.99
2017-07-11T06:11:41.315Z,99.99
2017-07-11T06:12:50.172Z,99.99
2017-07-11T06:13:59.230Z,99.99
2017-07-11T06:15:08.091Z,99.99
2017-07-11T06:16:16.947Z,99.99
2017-07-11T06:17:25.804Z,99.99
2017-07-11T06:18:34.663Z,99.99
2017-07-11T06:19:43.853Z,99.99
2017-07-11T06:20:52.708Z,99.99
2017-07-11T06:22:01.567Z,99.99
2017-07-11T06:23:10.427Z,99.99
2017-07-11T06:24:19.287Z,99.99
2017-07-11T06:25:28.246Z,99.99
2017-07-11T06:26:37.107Z,99.99
2017-07-11T06:27:45.976Z,99.99
2017-07-11T06:28:54.831Z,99.99
2017-07-11T06:30:03.708Z,99.99
2017-07-11T06:31:12.567Z,99.99
2017-07-11T06:32:21.761Z,99.99
2017-07-11T06:33:30.949Z,99.99
2017-07-11T06:34:39.807Z,99.99
2017-07-11T06:35:48.666Z,99.99
2017-07-11T06:36:57.779Z,99.99
2017-07-11T06:38:06.633Z,99.99
2017-07-11T06:39:15.490Z,99.99
2017-07-11T06:40:24.353Z,99.99
2017-07-11T06:41:33.539Z,99.99
2017-07-11T06:42:42.596Z,99.99
2017-07-11T06:43:51.455Z,99.99
2017-07-11T06:45:00.315Z,99.99
2017-07-11T06:46:09.172Z,99.99
2017-07-11T06:47:18.029Z,99.99
2017-07-11T06:48:27.140Z,99.99
2017-07-11T06:49:35.996Z,99.99
2017-07-11T06:50:44.855Z,99.99
2017-07-11T06:51:53.711Z,99.99
2017-07-11T06:53:02.568Z,99.99
2017-07-11T06:54:11.578Z,99.99
2017-07-11T06:55:20.435Z,99.99
2017-07-11T06:56:29.293Z,99.99
2017-07-11T06:57:38.153Z,99.99
2017-07-11T06:58:47.012Z,99.99
2017-07-11T06:59:56.122Z,99.99
2017-07-11T07:01:04.978Z,99.99
2017-07-11T07:02:13.836Z,99.99
2017-07-11T07:03:22.695Z,99.99
2017-07-11T07:04:31.554Z,99.99
2017-07-11T07:05:40.512Z,99.99
2017-07-11T07:06:49.372Z,99.99
2017-07-11T07:07:58.229Z,99.99
2017-07-11T07:09:07.088Z,99.99
2017-07-11T07:10:15.945Z,99.99
2017-07-11T07:11:24.903Z,99.99
2017-07-11T07:12:34.095Z,99.99
2017-07-11T07:13:42.953Z,99.99
2017-07-11T07:14:51.810Z,99.99
2017-07-11T07:16:00.668Z,99.99
2017-07-11T07:17:09.675Z,99.99
2017-07-11T07:18:18.534Z,99.99
2017-07-11T07:19:27.393Z,99.99
2017-07-11T07:20:36.253Z,99.99
2017-07-11T07:21:45.111Z,99.99
2017-07-11T07:22:54.117Z,99.99
2017-07-11T07:24:02.979Z,99.99
2017-07-11T07:25:11.837Z,99.99
2017-07-11T07:26:21.029Z,99.99
2017-07-11T07:27:29.889Z,99.99
2017-07-11T07:28:39.049Z,99.99
2017-07-11T07:29:47.908Z,99.99
2017-07-11T07:30:56.801Z,99.99
2017-07-11T07:32:05.627Z,99.99
2017-07-11T07:33:14.486Z,99.99
2017-07-11T07:34:23.496Z,99.99
2017-07-11T07:35:32.687Z,99.99
2017-07-11T07:36:41.546Z,99.99
2017-07-11T07:37:50.406Z,99.99
2017-07-11T07:38:59.599Z,99.99
2017-07-11T07:40:08.608Z,99.99
2017-07-11T07:41:17.469Z,99.99
2017-07-11T07:42:26.326Z,99.99
2017-07-11T07:43:35.534Z,99.99
2017-07-11T07:44:44.723Z,99.99
2017-07-11T07:45:53.731Z,99.99
2017-07-11T07:47:02.590Z,99.99
2017-07-11T07:48:11.513Z,99.99
2017-07-11T07:49:20.308Z,99.99
2017-07-11T07:50:29.167Z,99.99
2017-07-11T07:51:38.076Z,99.99
2017-07-11T07:52:46.933Z,99.99
2017-07-11T07:53:55.792Z,99.99
2017-07-11T07:55:04.653Z,99.99
2017-07-11T07:56:13.515Z,99.99
2017-07-11T07:57:22.529Z,99.99
2017-07-11T07:58:31.390Z,99.99
2017-07-11T07:59:40.257Z,99.99
2017-07-11T08:00:49.112Z,99.99
2017-07-11T08:01:57.971Z,99.99
2017-07-11T08:03:06.980Z,99.99
2017-07-11T08:04:15.843Z,99.99
2017-07-11T08:05:24.703Z,99.99
2017-07-11T08:06:33.567Z,99.99
2017-07-11T08:07:42.427Z,99.99
2017-07-11T08:08:51.434Z,99.99
2017-07-11T08:10:00.295Z,99.99
2017-07-11T08:11:09.156Z,99.99
2017-07-11T08:12:18.016Z,99.99
2017-07-11T08:13:26.877Z,99.99
2017-07-11T08:14:35.954Z,99.99
2017-07-11T08:15:44.840Z,99.99
2017-07-11T08:16:53.720Z,99.99
2017-07-11T08:18:02.537Z,99.99
2017-07-11T08:19:11.398Z,99.99
2017-07-11T08:20:20.613Z,99.99
2017-07-11T08:21:29.472Z,99.99
2017-07-11T08:22:38.331Z,99.99
2017-07-11T08:23:47.191Z,99.99
2017-07-11T08:24:56.050Z,99.99
2017-07-11T08:26:05.063Z,99.99
2017-07-11T08:27:13.921Z,99.99
2017-07-11T08:28:22.781Z,99.99
2017-07-11T08:29:31.639Z,99.99
2017-07-11T08:30:40.498Z,99.99
2017-07-11T08:31:49.761Z,99.99
2017-07-11T08:32:58.622Z,99.99
2017-07-11T08:34:07.482Z,99.99
2017-07-11T08:35:16.344Z,99.99
2017-07-11T08:36:25.204Z,99.99
2017-07-11T08:37:34.316Z,99.99
2017-07-11T08:38:43.177Z,99.99
2017-07-11T08:39:52.039Z,99.99
2017-07-11T08:41:00.951Z,99.99
2017-07-11T08:42:09.759Z,99.99
2017-07-11T08:43:18.718Z,99.99
2017-07-11T08:44:27.579Z,99.99
2017-07-11T08:45:36.440Z,99.99
2017-07-11T08:46:45.300Z,99.99
2017-07-11T08:47:54.163Z,99.99
2017-07-11T08:49:03.174Z,99.99
2017-07-11T08:50:12.035Z,99.99
2017-07-11T08:51:20.897Z,99.99
2017-07-11T08:52:29.758Z,99.99
2017-07-11T08:53:38.619Z,99.99
2017-07-11T08:54:47.482Z,99.99
2017-07-11T08:55:56.343Z,99.99
2017-07-11T08:57:05.207Z,99.99
2017-07-11T08:58:14.068Z,99.99
2017-07-11T08:59:22.926Z,99.99
2017-07-11T09:00:31.838Z,99.99
2017-07-11T09:01:40.701Z,99.99
2017-07-11T09:02:49.562Z,99.99
2017-07-11T09:03:58.426Z,99.99
2017-07-11T09:05:07.298Z,99.99
2017-07-11T09:06:16.219Z,99.99
2017-07-11T09:07:25.079Z,99.99
2017-07-11T09:08:33.940Z,97.62
2017-07-11T09:09:42.804Z,97.91
2017-07-11T09:10:52.001Z,97.52
2017-07-11T09:12:01.442Z,96.17
2017-07-11T09:13:10.302Z,96.85
2017-07-11T09:14:19.163Z,98.29
2017-07-11T09:15:28.023Z,98.77
2017-07-11T09:16:36.882Z,99.35
2017-07-11T09:17:45.892Z,97.72
2017-07-11T09:18:54.755Z,96.56
2017-07-11T09:20:03.616Z,96.85
2017-07-11T09:21:12.477Z,96.85
2017-07-11T09:22:21.336Z,97.14
2017-07-11T09:23:30.447Z,96.85
2017-07-11T09:24:39.311Z,96.32
2017-07-11T09:25:48.172Z,96.37
2017-07-11T09:26:57.032Z,96.41
2017-07-11T09:28:05.891Z,95.21
2017-07-11T09:29:14.753Z,95.02
2017-07-11T09:30:23.615Z,93.76
2017-07-11T09:31:32.477Z,94.34
2017-07-11T09:32:41.337Z,94.44
2017-07-11T09:33:50.196Z,94.15
2017-07-11T09:34:59.208Z,94.24
2017-07-11T09:36:08.069Z,96.17
2017-07-11T09:37:16.927Z,93.28
2017-07-11T09:38:25.787Z,93.19
2017-07-11T09:39:34.647Z,92.51
2017-07-11T09:40:43.758Z,93.86
2017-07-11T09:41:52.618Z,92.71
2017-07-11T09:43:01.478Z,92.99
2017-07-11T09:44:10.336Z,92.51
2017-07-11T09:45:19.196Z,92.41
2017-07-11T09:46:28.359Z,92.32
2017-07-11T09:47:37.217Z,92.61
2017-07-11T09:48:46.076Z,92.8
2017-07-11T09:49:54.938Z,91.45
2017-07-11T09:51:03.799Z,92.51
2017-07-11T09:52:12.660Z,92.51
2017-07-11T09:53:21.521Z,93.57
2017-07-11T09:54:30.379Z,93.28
2017-07-11T09:55:39.239Z,93.38
2017-07-11T09:56:48.097Z,93.09
2017-07-11T09:57:57.207Z,92.51
2017-07-11T09:59:06.068Z,92.99
2017-07-11T10:00:14.927Z,93.19
2017-07-11T10:01:23.788Z,93.09
2017-07-11T10:02:32.649Z,92.9
2017-07-11T10:03:41.562Z,94.06
2017-07-11T10:04:50.421Z,92.8
2017-07-11T10:05:59.283Z,92.99
2017-07-11T10:07:08.142Z,92.61
2017-07-11T10:08:17.006Z,92.41
2017-07-11T10:09:26.118Z,92.32
2017-07-11T10:10:34.979Z,91.93
2017-07-11T10:11:43.841Z,91.64
2017-07-11T10:12:52.702Z,91.26
2017-07-11T10:14:01.561Z,92.32
2017-07-11T10:15:10.727Z,91.83
2017-07-11T10:16:19.586Z,90.97
2017-07-11T10:17:28.448Z,92.51
2017-07-11T10:18:37.308Z,91.98
2017-07-11T10:19:46.168Z,91.78
2017-07-11T10:20:55.130Z,91.78
2017-07-11T10:22:03.989Z,91.5
2017-07-11T10:23:12.850Z,90.63
2017-07-11T10:24:21.713Z,90.2
2017-07-11T10:25:30.576Z,90.58
2017-07-11T10:26:39.586Z,90.48
2017-07-11T10:27:48.451Z,90.78
2017-07-11T10:28:57.310Z,90.97
2017-07-11T10:30:06.170Z,90.39
2017-07-11T10:31:15.029Z,90.2
2017-07-11T10:32:23.940Z,90.44
2017-07-11T10:33:32.800Z,89.76
2017-07-11T10:34:41.662Z,89.91
2017-07-11T10:35:50.524Z,90.63
2017-07-11T10:36:59.386Z,91.4
2017-07-11T10:38:08.296Z,90.34
2017-07-11T10:39:17.157Z,90.53
2017-07-11T10:40:26.019Z,89.57
2017-07-11T10:41:34.878Z,89.47
2017-07-11T10:42:43.739Z,88.79
2017-07-11T10:43:52.600Z,89.47
2017-07-11T10:45:01.463Z,89.57
2017-07-11T10:46:10.326Z,89.67
2017-07-11T10:47:19.185Z,88.99
2017-07-11T10:48:28.047Z,89.57
2017-07-11T10:49:37.006Z,89.61
2017-07-11T10:50:45.868Z,89.81
2017-07-11T10:51:54.731Z,90.19
2017-07-11T10:53:03.593Z,90.96
2017-07-11T10:54:12.452Z,91.16
2017-07-11T10:55:21.616Z,89.81
2017-07-11T10:56:30.477Z,89.32
2017-07-11T10:57:39.339Z,88.65
2017-07-11T10:58:48.199Z,88.84
2017-07-11T10:59:57.062Z,88.75
2017-07-11T11:01:06.123Z,88.93
2017-07-11T11:02:14.983Z,87.49
2017-07-11T11:03:23.846Z,87.78
2017-07-11T11:04:32.708Z,87.2
2017-07-11T11:05:41.569Z,86.52
2017-07-11T11:06:50.909Z,86.82
2017-07-11T11:07:59.771Z,87.1
2017-07-11T11:09:08.633Z,87.3
2017-07-11T11:10:17.493Z,86.24
2017-07-11T11:11:26.356Z,87.4
2017-07-11T11:12:35.316Z,87.2
2017-07-11T11:13:44.179Z,86.43
2017-07-11T11:14:53.039Z,87.15
2017-07-11T11:16:01.900Z,87.82
2017-07-11T11:17:10.759Z,86.47
2017-07-11T11:18:19.670Z,86.08
2017-07-11T11:19:28.532Z,86.47
2017-07-11T11:20:37.396Z,86.08
2017-07-11T11:21:46.258Z,85.5
2017-07-11T11:22:55.120Z,85.02
2017-07-11T11:24:04.237Z,84.74
2017-07-11T11:25:13.430Z,84.93
2017-07-11T11:26:22.292Z,85.5
2017-07-11T11:27:31.152Z,85.6
2017-07-11T11:28:40.014Z,86.47
2017-07-11T11:29:49.126Z,86.28
2017-07-11T11:30:58.319Z,85.6
2017-07-11T11:32:07.182Z,83.87
2017-07-11T11:33:16.045Z,84.25
2017-07-11T11:34:24.907Z,83.77
2017-07-11T11:35:33.972Z,84.35
2017-07-11T11:36:42.838Z,84.25
2017-07-11T11:37:51.704Z,84.44
2017-07-11T11:39:00.569Z,84.83
2017-07-11T11:40:09.432Z,85.7
2017-07-11T11:41:18.780Z,85.41
2017-07-11T11:42:27.977Z,85.6
2017-07-11T11:43:36.841Z,85.22
2017-07-11T11:44:45.704Z,85.12
2017-07-11T11:45:54.567Z,84.48
2017-07-11T11:47:03.679Z,85.45
2017-07-11T11:48:12.540Z,84.48
2017-07-11T11:49:21.404Z,83.33
2017-07-11T11:50:30.267Z,84.48
2017-07-11T11:51:39.130Z,82.46
2017-07-11T11:52:48.149Z,83.72
2017-07-11T11:53:57.012Z,83.42
2017-07-11T11:55:05.877Z,83.37
2017-07-11T11:56:14.742Z,83.27
2017-07-11T11:57:23.604Z,80.86
2017-07-11T11:58:32.619Z,80.08
2017-07-11T11:59:41.482Z,80.47
2017-07-11T12:00:50.345Z,79.99
2017-07-11T12:01:59.209Z,79.5
2017-07-11T12:03:08.073Z,80.18
2017-07-11T12:04:17.186Z,79.25
2017-07-11T12:05:26.052Z,77.42
2017-07-11T12:06:34.919Z,76.49
2017-07-11T12:07:43.785Z,77.45
2017-07-11T12:08:52.659Z,77.36
2017-07-11T12:10:02.104Z,76.04
2017-07-11T12:11:10.973Z,75.27
2017-07-11T12:12:19.840Z,76.2
2017-07-11T12:13:28.705Z,74.69
2017-07-11T12:14:37.901Z,73.82
2017-07-11T12:15:47.017Z,74.88
2017-07-11T12:16:55.885Z,73.04
2017-07-11T12:18:04.754Z,72.02
2017-07-11T12:19:13.622Z,71.72
2017-07-11T12:20:22.490Z,72.6
2017-07-11T12:21:31.358Z,72.4
2017-07-11T12:22:40.225Z,73.75
2017-07-11T12:23:49.094Z,72.3
2017-07-11T12:24:57.960Z,70.5
2017-07-11T12:26:06.828Z,71.44
2017-07-11T12:27:15.697Z,72.02
2017-07-11T12:28:24.902Z,71.92
2017-07-11T12:29:33.770Z,69.79
2017-07-11T12:30:42.642Z,67.98
2017-07-11T12:31:51.512Z,68.27
2017-07-11T12:33:00.434Z,68.18
2017-07-11T12:34:09.633Z,68.37
2017-07-11T12:35:18.504Z,67.53
2017-07-11T12:36:27.377Z,67.79
2017-07-11T12:37:36.246Z,68.37
2017-07-11T12:38:45.170Z,69.53
2017-07-11T12:39:54.038Z,67.56
2017-07-11T12:41:02.907Z,60.98
2017-07-11T12:42:11.774Z,60.24
2017-07-11T12:43:20.645Z,62.24
2017-07-11T12:44:29.553Z,61.27
2017-07-11T12:45:38.418Z,61.05
2017-07-11T12:46:47.285Z,62.66
2017-07-11T12:47:56.153Z,63.15
2017-07-11T12:49:05.020Z,63.05
2017-07-11T12:50:13.986Z,64.11
2017-07-11T12:51:22.851Z,64.31
2017-07-11T12:52:31.765Z,65.56
2017-07-11T12:53:40.631Z,64.79
2017-07-11T12:54:49.495Z,65.27
2017-07-11T12:55:58.847Z,66.05
2017-07-11T12:57:07.711Z,66.69
2017-07-11T12:58:16.577Z,66.97
2017-07-11T12:59:25.443Z,64.69
2017-07-11T13:00:34.312Z,66.14
2017-07-11T13:01:43.377Z,65.66
2017-07-11T13:02:52.245Z,65.47
2017-07-11T13:04:01.116Z,65.66
2017-07-11T13:05:09.983Z,66.63
2017-07-11T13:06:18.850Z,66.24
2017-07-11T13:07:27.861Z,66.05
2017-07-11T13:08:36.725Z,64.5
2017-07-11T13:09:45.598Z,66.59
2017-07-11T13:10:54.461Z,66.2
2017-07-11T13:12:03.329Z,66.46
2017-07-11T13:13:12.289Z,68.16
2017-07-11T13:14:21.153Z,68.8
2017-07-11T13:15:30.014Z,69.38
2017-07-11T13:16:38.877Z,70.15
2017-07-11T13:17:47.739Z,70.06
2017-07-11T13:18:56.751Z,71.6
2017-07-11T13:20:05.613Z,70.57
2017-07-11T13:21:14.474Z,71.54
2017-07-11T13:22:23.334Z,70.19
2017-07-11T13:23:32.197Z,70.19
2017-07-11T13:24:41.156Z,70.76
2017-07-11T13:25:50.018Z,70.96
2017-07-11T13:26:58.881Z,71.34
2017-07-11T13:28:07.742Z,72.18
2017-07-11T13:29:16.605Z,72.99
2017-07-11T13:30:25.850Z,72.85
2017-07-11T13:31:35.046Z,73.72
2017-07-11T13:32:43.908Z,74.49
2017-07-11T13:33:52.769Z,75.16
2017-07-11T13:35:01.628Z,77.19
2017-07-11T13:36:10.691Z,77.28
2017-07-11T13:37:19.550Z,78.15
2017-07-11T13:38:28.463Z,78.83
2017-07-11T13:39:37.268Z,78.54
2017-07-11T13:40:46.130Z,79.98
2017-07-11T13:41:55.142Z,79.5
2017-07-11T13:43:04.015Z,80.18
2017-07-11T13:44:12.877Z,78.92
2017-07-11T13:45:21.740Z,79.54
2017-07-11T13:46:30.605Z,79.35
2017-07-11T13:47:39.776Z,77.84
2017-07-11T13:48:48.664Z,77.3
2017-07-11T13:49:57.531Z,76.76
2017-07-11T13:51:06.400Z,74.64
2017-07-11T13:52:15.288Z,73.32
2017-07-11T13:53:24.300Z,71.52
2017-07-11T13:54:33.169Z,70.4
2017-07-11T13:55:42.044Z,69.27
2017-07-11T13:56:50.918Z,70.72
2017-07-11T13:57:59.788Z,69.69
2017-07-11T13:59:08.859Z,68.73
2017-07-11T14:00:17.730Z,68.33
2017-07-11T14:01:26.599Z,69.46
2017-07-11T14:02:35.466Z,68.79
2017-07-11T14:03:44.331Z,68.37
2017-07-11T14:04:53.413Z,68.62
2017-07-11T14:06:02.322Z,70.36
2017-07-11T14:07:11.218Z,72.1
2017-07-11T14:08:20.092Z,73.9
2017-07-11T14:09:28.980Z,82.84
2017-07-11T14:10:37.859Z,95.35
2017-07-11T14:11:46.738Z,99.99
2017-07-11T14:12:55.623Z,99.99
2017-07-11T14:14:04.487Z,99.99
2017-07-11T14:15:13.349Z,99.99
2017-07-11T14:16:22.518Z,99.99
2017-07-11T14:17:31.442Z,99.99
2017-07-11T14:18:40.255Z,99.99
2017-07-11T14:19:49.129Z,99.99
2017-07-11T14:20:58.007Z,99.99
2017-07-11T14:22:06.871Z,99.99
2017-07-11T14:23:15.736Z,99.99
2017-07-11T14:24:24.611Z,99.99
2017-07-11T14:25:33.471Z,99.99
2017-07-11T14:26:42.343Z,99.99
2017-07-11T14:27:51.209Z,99.99
2017-07-11T14:29:00.071Z,99.99
2017-07-11T14:30:08.957Z,99.99
2017-07-11T14:31:17.816Z,99.99
2017-07-11T14:32:26.676Z,99.99
2017-07-11T14:33:35.687Z,99.99
2017-07-11T14:34:44.546Z,99.99
2017-07-11T14:35:53.407Z,99.99
2017-07-11T14:37:02.272Z,99.99
2017-07-11T14:38:11.134Z,99.99
2017-07-11T14:39:20.245Z,99.99
2017-07-11T14:40:29.116Z,99.99
2017-07-11T14:41:37.977Z,99.99
2017-07-11T14:42:46.839Z,99.99
2017-07-11T14:43:55.704Z,99.99
2017-07-11T14:45:04.817Z,99.99
2017-07-11T14:46:13.680Z,99.99
2017-07-11T14:47:22.543Z,99.99
2017-07-11T14:48:31.409Z,99.45